createdAt,value
2023-05-18T00:02:03.618Z,9.82
2023-05-18T00:04:35.782Z,9.79
2023-05-18T00:07:08.212Z,9.77
2023-05-18T00:09:38.512Z,9.89
2023-05-18T00:12:10.519Z,9.89
2023-05-18T00:14:44.598Z,9.81
2023-05-18T00:17:16.210Z,9.75
2023-05-18T00:19:51.483Z,9.79
2023-05-18T00:22:21.334Z,9.78
2023-05-18T00:24:53.681Z,9.77
2023-05-18T00:27:56.353Z,9.70
2023-05-18T00:30:33.081Z,9.75
2023-05-18T00:33:03.316Z,9.68
2023-05-18T00:35:35.598Z,9.67
2023-05-18T00:38:11.064Z,9.61
2023-05-18T00:40:41.988Z,9.62
2023-05-18T00:43:22.359Z,9.65
2023-05-18T00:45:54.058Z,9.68
2023-05-18T00:48:23.336Z,9.55
2023-05-18T00:50:53.475Z,9.65
2023-05-18T00:53:25.303Z,9.58
2023-05-18T00:55:56.370Z,9.62
2023-05-18T00:58:31.474Z,9.70
2023-05-18T01:01:06.346Z,9.65
2023-05-18T01:03:39.270Z,9.69
2023-05-18T01:06:13.490Z,9.66
2023-05-18T01:08:48.940Z,9.64
2023-05-18T01:11:29.668Z,9.40
2023-05-18T01:14:11.754Z,9.35
2023-05-18T01:16:52.413Z,9.32
2023-05-18T01:20:17.136Z,9.45
2023-05-18T01:23:32.548Z,9.68
2023-05-18T01:26:16.225Z,9.56
2023-05-18T01:28:48.350Z,9.47
2023-05-18T01:31:21.099Z,9.59
2023-05-18T01:33:57.222Z,9.57
2023-05-18T01:36:26.640Z,9.83
2023-05-18T01:39:01.879Z,9.75
2023-05-18T01:41:41.135Z,9.87
2023-05-18T01:44:15.902Z,9.88
2023-05-18T01:46:57.082Z,9.90
2023-05-18T01:49:35.539Z,9.87
2023-05-18T01:52:14.947Z,9.75
2023-05-18T01:54:52.977Z,9.83
2023-05-18T01:57:29.011Z,9.76
2023-05-18T02:00:11.455Z,9.84
2023-05-18T02:02:40.596Z,9.85
2023-05-18T02:05:12.865Z,9.67
2023-05-18T02:07:44.256Z,9.80
2023-05-18T02:10:18.147Z,9.80
2023-05-18T02:12:54.504Z,9.94
2023-05-18T02:15:25.808Z,9.96
2023-05-18T02:17:59.369Z,9.88
2023-05-18T02:20:34.353Z,9.88
2023-05-18T02:23:09.598Z,9.81
2023-05-18T02:25:39.915Z,9.82
2023-05-18T02:28:13.364Z,9.81
2023-05-18T02:30:43.717Z,9.72
2023-05-18T02:33:14.181Z,9.86
2023-05-18T02:35:44.062Z,9.84
2023-05-18T02:38:15.232Z,9.69
2023-05-18T02:40:44.499Z,9.65
2023-05-18T02:43:21.698Z,9.55
2023-05-18T02:45:52.072Z,9.64
2023-05-18T02:48:21.828Z,9.66
2023-05-18T02:50:52.748Z,9.65
2023-05-18T02:53:24.420Z,9.63
2023-05-18T02:55:58.781Z,9.50
2023-05-18T02:58:33.472Z,9.59
2023-05-18T03:01:04.219Z,9.43
2023-05-18T03:03:35.805Z,9.47
2023-05-18T03:06:08.632Z,9.37
2023-05-18T03:08:43.155Z,9.30
2023-05-18T03:11:16.552Z,9.36
2023-05-18T03:13:47.682Z,9.31
2023-05-18T03:16:18.048Z,9.21
2023-05-18T03:18:48.740Z,9.10
2023-05-18T03:21:20.144Z,9.11
2023-05-18T03:23:54.243Z,9.15
2023-05-18T03:26:31.338Z,9.17
2023-05-18T03:29:06.365Z,9.14
2023-05-18T03:31:36.718Z,9.08
2023-05-18T03:34:06.985Z,8.98
2023-05-18T03:36:41.257Z,8.98
2023-05-18T03:39:13.343Z,8.93
2023-05-18T03:41:45.331Z,8.94
2023-05-18T03:44:16.370Z,8.91
2023-05-18T03:46:51.542Z,8.85
2023-05-18T03:49:23.973Z,8.76
2023-05-18T03:51:56.780Z,8.92
2023-05-18T03:54:33.758Z,8.88
2023-05-18T03:57:06.535Z,8.85
2023-05-18T03:59:39.382Z,8.75
2023-05-18T04:02:09.764Z,8.75
2023-05-18T04:04:46.518Z,8.74
2023-05-18T04:07:17.910Z,8.78
2023-05-18T04:09:46.514Z,8.79
2023-05-18T04:12:15.669Z,8.80
2023-05-18T04:14:49.645Z,8.93
2023-05-18T04:17:22.439Z,8.93
2023-05-18T04:19:53.566Z,8.92
2023-05-18T04:22:25.957Z,8.83
2023-05-18T04:25:12.036Z,8.95
2023-05-18T04:27:55.060Z,8.90
2023-05-18T04:30:36.045Z,9.05
2023-05-18T04:33:17.030Z,9.03
2023-05-18T04:36:01.454Z,9.24
2023-05-18T04:38:39.485Z,9.16
2023-05-18T04:41:12.383Z,9.25
2023-05-18T04:43:53.550Z,9.37
2023-05-18T04:46:29.371Z,9.45
2023-05-18T04:48:59.315Z,9.44
2023-05-18T04:51:31.192Z,9.22
2023-05-18T04:54:13.349Z,9.34
2023-05-18T04:56:43.377Z,9.29
2023-05-18T04:59:38.726Z,9.35
2023-05-18T05:09:30.868Z,9.58
2023-05-18T05:12:00.044Z,9.74
2023-05-18T05:14:28.593Z,9.90
2023-05-18T05:16:57.372Z,10.04
2023-05-18T05:19:27.322Z,9.90
2023-05-18T05:21:57.107Z,9.85
2023-05-18T05:24:25.620Z,10.18
2023-05-18T05:26:56.104Z,10.30
2023-05-18T05:29:26.584Z,10.31
2023-05-18T05:31:55.101Z,10.38
2023-05-18T05:34:23.639Z,10.40
2023-05-18T05:36:52.031Z,10.61
2023-05-18T05:39:23.253Z,10.53
2023-05-18T05:41:51.949Z,10.84
2023-05-18T05:44:22.342Z,10.69
2023-05-18T05:46:51.409Z,10.98
2023-05-18T05:49:20.465Z,11.06
2023-05-18T05:51:49.108Z,11.28
2023-05-18T05:54:17.924Z,11.48
2023-05-18T05:56:46.470Z,11.67
2023-05-18T05:59:15.225Z,11.56
2023-05-18T06:01:45.254Z,11.80
2023-05-18T06:04:16.014Z,11.90
2023-05-18T06:06:45.029Z,11.82
2023-05-18T06:09:13.926Z,11.69
2023-05-18T06:11:42.710Z,11.87
2023-05-18T06:14:12.312Z,12.15
2023-05-18T06:16:42.159Z,12.03
2023-05-18T06:19:12.481Z,12.56
2023-05-18T06:21:41.041Z,12.72
2023-05-18T06:24:13.276Z,11.71
2023-05-18T06:26:41.829Z,12.53
2023-05-18T06:29:10.302Z,11.98
2023-05-18T06:31:38.765Z,12.71
2023-05-18T06:34:07.092Z,13.03
2023-05-18T06:36:38.190Z,13.49
2023-05-18T06:39:07.319Z,13.53
2023-05-18T06:41:36.073Z,13.63
2023-05-18T06:44:05.841Z,13.77
2023-05-18T06:46:34.942Z,13.08
2023-05-18T06:49:04.168Z,13.38
2023-05-18T06:51:33.831Z,13.64
2023-05-18T06:54:10.199Z,13.48
2023-05-18T06:56:40.257Z,13.49
2023-05-18T06:59:09.200Z,13.55
2023-05-18T07:01:38.380Z,13.16
2023-05-18T07:04:08.121Z,12.69
2023-05-18T07:06:36.937Z,12.86
2023-05-18T07:09:08.106Z,13.26
2023-05-18T07:11:40.086Z,13.24
2023-05-18T07:14:10.325Z,13.31
2023-05-18T07:16:39.902Z,13.37
2023-05-18T07:19:08.933Z,13.30
2023-05-18T07:21:38.518Z,13.56
2023-05-18T07:24:10.514Z,13.34
2023-05-18T07:26:40.077Z,13.18
2023-05-18T07:29:09.252Z,13.74
2023-05-18T07:31:41.590Z,13.88
2023-05-18T07:34:12.691Z,13.50
2023-05-18T07:36:41.623Z,13.62
2023-05-18T07:39:19.498Z,13.76
2023-05-18T07:41:50.158Z,13.78
2023-05-18T07:44:18.995Z,14.21
2023-05-18T07:46:47.726Z,14.42
2023-05-18T07:49:16.279Z,14.40
2023-05-18T07:51:44.691Z,13.64
2023-05-18T07:54:14.836Z,14.53
2023-05-18T07:56:44.309Z,14.56
2023-05-18T07:59:12.920Z,14.90
2023-05-18T08:01:41.610Z,14.42
2023-05-18T08:04:10.055Z,14.46
2023-05-18T08:06:38.414Z,14.71
2023-05-18T08:09:07.194Z,14.59
2023-05-18T08:11:37.843Z,14.71
2023-05-18T08:14:07.692Z,15.27
2023-05-18T08:16:37.726Z,14.78
2023-05-18T08:19:06.624Z,14.99
2023-05-18T08:21:35.564Z,14.64
2023-05-18T08:24:04.746Z,15.40
2023-05-18T08:26:33.477Z,15.70
2023-05-18T08:29:09.721Z,15.71
2023-05-18T08:31:38.647Z,15.76
2023-05-18T08:34:08.225Z,14.93
2023-05-18T08:36:37.762Z,15.50
2023-05-18T08:39:06.323Z,14.58
2023-05-18T08:41:42.865Z,15.33
2023-05-18T08:44:21.747Z,15.48
2023-05-18T08:46:52.413Z,15.46
2023-05-18T08:49:22.531Z,15.69
2023-05-18T08:52:01.873Z,15.84
2023-05-18T08:54:32.885Z,16.11
2023-05-18T08:57:03.421Z,16.12
2023-05-18T08:59:42.241Z,16.18
2023-05-18T09:02:15.594Z,15.98
2023-05-18T09:04:46.029Z,16.17
2023-05-18T09:07:16.647Z,16.26
2023-05-18T09:09:46.337Z,16.71
2023-05-18T09:12:16.375Z,16.41
2023-05-18T09:14:47.585Z,17.12
2023-05-18T09:17:16.574Z,16.55
2023-05-18T09:19:46.067Z,16.81
2023-05-18T09:22:16.332Z,16.60
2023-05-18T09:24:46.412Z,16.74
2023-05-18T09:27:14.997Z,16.77
2023-05-18T09:29:56.630Z,17.19
2023-05-18T09:32:26.978Z,16.95
2023-05-18T09:34:55.528Z,17.51
2023-05-18T09:37:24.681Z,16.94
2023-05-18T09:40:01.372Z,17.71
2023-05-18T09:42:38.755Z,17.96
2023-05-18T09:45:19.056Z,18.11
2023-05-18T09:47:48.470Z,17.82
2023-05-18T09:50:20.455Z,17.60
2023-05-18T09:52:51.055Z,17.80
2023-05-18T09:55:22.967Z,17.62
2023-05-18T09:57:52.311Z,17.84
2023-05-18T10:00:25.454Z,17.87
2023-05-18T10:02:59.190Z,18.38
2023-05-18T10:05:34.831Z,18.13
2023-05-18T10:08:05.050Z,17.89
2023-05-18T10:10:35.259Z,19.01
2023-05-18T10:13:03.957Z,17.72
2023-05-18T10:15:34.480Z,18.34
2023-05-18T10:18:07.766Z,17.74
2023-05-18T10:20:36.586Z,18.31
2023-05-18T10:23:08.517Z,19.02
2023-05-18T10:25:38.257Z,18.77
2023-05-18T10:28:11.352Z,18.61
2023-05-18T10:30:43.124Z,19.25
2023-05-18T10:33:24.671Z,18.97
2023-05-18T10:35:57.869Z,18.82
2023-05-18T10:38:28.693Z,19.11
2023-05-18T10:41:00.415Z,18.48
2023-05-18T10:43:29.984Z,18.63
2023-05-18T10:46:02.341Z,17.80
2023-05-18T10:48:31.893Z,18.50
2023-05-18T10:51:00.731Z,19.20
2023-05-18T10:53:30.669Z,19.56
2023-05-18T10:55:59.359Z,18.82
2023-05-18T10:58:30.926Z,18.30
2023-05-18T11:01:03.283Z,19.21
2023-05-18T11:03:34.723Z,19.38
2023-05-18T11:06:10.428Z,19.48
2023-05-18T11:08:48.003Z,19.18
2023-05-18T11:11:19.233Z,19.93
2023-05-18T11:13:52.437Z,19.29
2023-05-18T11:16:29.937Z,20.04
2023-05-18T11:19:08.068Z,20.30
2023-05-18T11:21:55.127Z,20.63
2023-05-18T11:24:31.280Z,20.77
2023-05-18T11:27:03.647Z,20.46
2023-05-18T11:29:35.521Z,20.07
2023-05-18T11:32:29.902Z,20.38
2023-05-18T11:34:59.964Z,19.97
2023-05-18T11:37:50.864Z,20.46
2023-05-18T11:40:49.101Z,20.23
2023-05-18T11:43:23.498Z,20.24
2023-05-18T11:45:58.936Z,20.68
2023-05-18T11:48:31.207Z,20.55
2023-05-18T11:51:00.361Z,20.30
2023-05-18T11:53:31.315Z,20.03
2023-05-18T11:56:01.547Z,20.85
2023-05-18T11:58:32.897Z,20.52
2023-05-18T12:01:04.045Z,20.89
2023-05-18T12:03:35.900Z,21.52
2023-05-18T12:06:10.583Z,20.59
2023-05-18T12:08:44.103Z,21.31
2023-05-18T12:11:15.244Z,21.69
2023-05-18T12:13:44.488Z,21.98
2023-05-18T12:16:14.620Z,22.31
2023-05-18T12:18:50.901Z,22.28
2023-05-18T12:21:26.987Z,21.40
2023-05-18T12:24:00.552Z,21.05
2023-05-18T12:26:29.898Z,21.74
2023-05-18T12:28:58.830Z,22.22
2023-05-18T12:31:27.750Z,22.26
2023-05-18T12:33:59.337Z,22.10
2023-05-18T12:36:28.193Z,21.25
2023-05-18T12:38:56.795Z,22.22
2023-05-18T12:41:27.690Z,22.18
2023-05-18T12:43:58.879Z,22.51
2023-05-18T12:46:31.842Z,22.79
2023-05-18T12:49:04.727Z,22.38
2023-05-18T12:51:49.962Z,22.10
2023-05-18T12:54:29.860Z,21.73
2023-05-18T12:57:02.090Z,21.51
2023-05-18T12:59:30.974Z,21.47
2023-05-18T13:02:00.116Z,22.29
2023-05-18T13:04:36.628Z,22.93
2023-05-18T13:07:06.201Z,22.96
2023-05-18T13:09:35.419Z,23.06
2023-05-18T13:12:07.776Z,22.98
2023-05-18T13:14:41.103Z,23.40
2023-05-18T13:17:10.075Z,23.52
2023-05-18T13:19:40.299Z,23.56
2023-05-18T13:22:09.897Z,24.27
2023-05-18T13:24:43.252Z,23.91
2023-05-18T13:27:12.041Z,24.17
2023-05-18T13:29:41.102Z,24.25
2023-05-18T13:32:10.023Z,24.06
2023-05-18T13:34:40.783Z,23.69
2023-05-18T13:37:10.378Z,24.30
2023-05-18T13:39:40.624Z,25.25
2023-05-18T13:42:09.748Z,24.33
2023-05-18T13:44:38.430Z,26.12
2023-05-18T13:47:07.709Z,25.85
2023-05-18T13:49:36.228Z,26.36
2023-05-18T13:52:06.654Z,26.15
2023-05-18T13:54:35.179Z,26.03
2023-05-18T13:57:03.896Z,25.08
2023-05-18T13:59:34.755Z,26.64
2023-05-18T14:02:03.406Z,26.17
2023-05-18T14:04:32.033Z,26.80
2023-05-18T14:07:00.667Z,26.35
2023-05-18T14:09:31.030Z,27.89
2023-05-18T14:12:00.445Z,27.64
2023-05-18T14:14:28.922Z,27.66
2023-05-18T14:16:57.933Z,27.83
2023-05-18T14:19:26.552Z,28.09
2023-05-18T14:21:55.274Z,29.09
2023-05-18T14:24:23.937Z,28.50
2023-05-18T14:26:54.895Z,29.36
2023-05-18T14:29:24.262Z,29.43
2023-05-18T14:31:53.846Z,28.91
2023-05-18T14:34:22.839Z,28.70
2023-05-18T14:36:52.913Z,30.06
2023-05-18T14:39:21.723Z,28.90
2023-05-18T14:41:50.718Z,29.70
2023-05-18T14:44:20.998Z,29.84
2023-05-18T14:46:49.892Z,30.23
2023-05-18T14:49:19.632Z,30.72
2023-05-18T14:51:48.851Z,31.48
2023-05-18T14:54:19.110Z,31.07
2023-05-18T14:56:48.176Z,30.78
2023-05-18T14:59:16.983Z,30.47
2023-05-18T15:01:50.002Z,31.42
2023-05-18T15:04:19.402Z,30.68
2023-05-18T15:06:48.177Z,29.49
2023-05-18T15:09:17.489Z,30.27
2023-05-18T15:11:46.949Z,30.41
2023-05-18T15:14:15.500Z,30.82
2023-05-18T15:16:44.255Z,31.35
2023-05-18T15:19:14.407Z,31.19
2023-05-18T15:21:44.986Z,30.71
2023-05-18T15:24:13.618Z,30.86
2023-05-18T15:26:43.161Z,31.00
2023-05-18T15:29:11.580Z,31.57
2023-05-18T15:31:40.128Z,31.11
2023-05-18T15:34:09.501Z,30.96
2023-05-18T15:36:39.787Z,31.47
2023-05-18T15:39:09.450Z,29.63
2023-05-18T15:41:38.239Z,30.63
2023-05-18T15:44:09.724Z,29.99
2023-05-18T15:46:43.678Z,29.32
2023-05-18T15:49:14.414Z,29.68
2023-05-18T15:51:44.625Z,30.78
2023-05-18T15:54:17.334Z,30.92
2023-05-18T15:56:46.215Z,30.84
2023-05-18T15:59:14.935Z,30.00
2023-05-18T16:01:43.615Z,30.57
2023-05-18T16:04:12.769Z,31.11
2023-05-18T16:06:42.219Z,30.23
2023-05-18T16:09:13.674Z,30.50
2023-05-18T16:11:42.486Z,30.66
2023-05-18T16:14:11.434Z,30.05
2023-05-18T16:16:40.077Z,29.90
2023-05-18T16:19:08.864Z,30.44
2023-05-18T16:21:37.838Z,30.38
2023-05-18T16:24:07.519Z,29.77
2023-05-18T16:26:40.010Z,29.31
2023-05-18T16:29:09.320Z,29.46
2023-05-18T16:31:38.428Z,28.81
2023-05-18T16:34:07.315Z,28.95
2023-05-18T16:36:36.753Z,28.54
2023-05-18T16:39:08.001Z,27.48
2023-05-18T16:41:38.155Z,28.36
2023-05-18T16:44:07.177Z,26.87
2023-05-18T16:46:37.924Z,27.32
2023-05-18T16:49:06.563Z,26.97
2023-05-18T16:51:35.103Z,26.27
2023-05-18T16:54:05.843Z,25.54
2023-05-18T16:56:35.877Z,24.80
2023-05-18T16:59:06.415Z,25.24
2023-05-18T17:01:37.320Z,24.69
2023-05-18T17:04:06.551Z,24.71
2023-05-18T17:06:35.337Z,24.16
2023-05-18T17:09:06.261Z,24.56
2023-05-18T17:11:36.706Z,24.22
2023-05-18T17:14:07.111Z,23.31
2023-05-18T17:16:40.459Z,22.42
2023-05-18T17:19:09.449Z,21.73
2023-05-18T17:21:38.376Z,22.40
2023-05-18T17:24:07.591Z,21.48
2023-05-18T17:26:36.717Z,21.44
2023-05-18T17:29:06.942Z,20.38
2023-05-18T17:31:35.487Z,20.64
2023-05-18T17:34:04.481Z,20.98
2023-05-18T17:36:33.157Z,20.81
2023-05-18T17:39:02.195Z,20.53
2023-05-18T17:41:30.975Z,19.99
2023-05-18T17:43:59.606Z,20.29
2023-05-18T17:46:29.718Z,19.38
2023-05-18T17:48:58.225Z,20.15
2023-05-18T17:51:27.420Z,20.02
2023-05-18T17:53:56.743Z,19.69
2023-05-18T17:56:28.278Z,19.71
2023-05-18T17:58:58.969Z,19.55
2023-05-18T18:01:30.022Z,19.69
2023-05-18T18:03:59.066Z,19.71
2023-05-18T18:06:28.092Z,19.07
2023-05-18T18:08:59.192Z,19.47
2023-05-18T18:11:28.189Z,19.23
2023-05-18T18:13:57.083Z,19.41
2023-05-18T18:16:25.913Z,18.83
2023-05-18T18:18:59.618Z,19.27
2023-05-18T18:21:28.143Z,19.04
2023-05-18T18:23:56.738Z,19.23
2023-05-18T18:26:26.161Z,19.37
2023-05-18T18:28:55.192Z,19.25
2023-05-18T18:31:23.933Z,19.52
2023-05-18T18:33:52.701Z,19.44
2023-05-18T18:36:24.892Z,18.77
2023-05-18T18:38:55.001Z,19.18
2023-05-18T18:41:23.775Z,19.03
2023-05-18T18:43:54.189Z,19.07
2023-05-18T18:46:22.891Z,18.82
2023-05-18T18:48:51.506Z,18.66
2023-05-18T18:51:22.708Z,18.80
2023-05-18T18:53:52.335Z,18.80
2023-05-18T18:56:25.064Z,18.69
2023-05-18T18:58:56.693Z,18.53
2023-05-18T19:01:25.308Z,18.38
2023-05-18T19:03:55.779Z,18.44
2023-05-18T19:06:29.191Z,18.04
2023-05-18T19:08:57.992Z,17.74
2023-05-18T19:11:29.857Z,17.52
2023-05-18T19:13:58.905Z,17.71
2023-05-18T19:16:28.452Z,17.73
2023-05-18T19:18:57.342Z,17.72
2023-05-18T19:21:29.088Z,17.57
2023-05-18T19:23:59.310Z,17.54
2023-05-18T19:26:30.890Z,17.58
2023-05-18T19:29:00.255Z,17.39
2023-05-18T19:31:31.898Z,17.35
2023-05-18T19:34:01.517Z,17.45
2023-05-18T19:36:31.725Z,17.34
2023-05-18T19:39:00.882Z,17.14
2023-05-18T19:41:30.325Z,17.14
2023-05-18T19:43:59.785Z,16.96
2023-05-18T19:46:30.205Z,16.67
2023-05-18T19:48:59.487Z,16.34
2023-05-18T19:51:29.297Z,16.44
2023-05-18T19:54:00.022Z,16.45
2023-05-18T19:56:28.712Z,16.53
2023-05-18T19:58:58.016Z,16.44
2023-05-18T20:01:26.736Z,16.22
2023-05-18T20:03:56.947Z,16.18
2023-05-18T20:06:26.124Z,16.35
2023-05-18T20:08:55.207Z,16.04
2023-05-18T20:11:26.039Z,15.87
2023-05-18T20:13:54.927Z,15.92
2023-05-18T20:16:23.791Z,15.94
2023-05-18T20:18:52.433Z,15.70
2023-05-18T20:21:20.984Z,15.84
2023-05-18T20:23:51.215Z,15.73
2023-05-18T20:26:22.843Z,15.64
2023-05-18T20:28:53.090Z,15.61
2023-05-18T20:31:22.200Z,15.69
2023-05-18T20:33:50.970Z,15.31
2023-05-18T20:36:21.394Z,15.52
2023-05-18T20:38:50.597Z,15.21
2023-05-18T20:41:23.499Z,15.36
2023-05-18T20:43:53.934Z,15.29
2023-05-18T20:46:25.124Z,15.22
2023-05-18T20:48:55.368Z,15.22
2023-05-18T20:51:24.982Z,15.24
2023-05-18T20:53:53.585Z,15.22
2023-05-18T20:56:22.683Z,15.09
2023-05-18T20:58:52.688Z,14.96
2023-05-18T21:01:21.480Z,15.00
2023-05-18T21:03:50.135Z,14.83
2023-05-18T21:06:19.084Z,14.69
2023-05-18T21:08:48.157Z,14.32
2023-05-18T21:11:17.013Z,14.59
2023-05-18T21:13:45.998Z,14.42
2023-05-18T21:16:16.072Z,13.97
2023-05-18T21:18:44.757Z,14.24
2023-05-18T21:21:13.520Z,14.38
2023-05-18T21:23:42.011Z,14.41
2023-05-18T21:26:11.101Z,14.44
2023-05-18T21:28:39.800Z,14.27
2023-05-18T21:31:08.311Z,14.29
2023-05-18T21:33:38.323Z,13.98
2023-05-18T21:36:09.813Z,14.13
2023-05-18T21:38:38.364Z,13.44
2023-05-18T21:41:06.864Z,14.05
2023-05-18T21:43:35.205Z,13.91
2023-05-18T21:46:03.750Z,13.86
2023-05-18T21:48:33.385Z,13.73
2023-05-18T21:51:04.271Z,13.80
2023-05-18T21:53:32.805Z,13.75
2023-05-18T21:56:01.084Z,13.76
2023-05-18T21:58:29.787Z,13.74
2023-05-18T22:00:58.217Z,13.73
2023-05-18T22:03:26.713Z,13.68
2023-05-18T22:05:55.188Z,13.64
2023-05-18T22:08:25.082Z,13.59
2023-05-18T22:10:53.582Z,13.18
2023-05-18T22:13:22.419Z,13.36
2023-05-18T22:15:51.154Z,13.35
2023-05-18T22:18:19.595Z,13.35
2023-05-18T22:20:48.292Z,13.37
2023-05-18T22:23:16.666Z,13.22
2023-05-18T22:25:47.360Z,13.25
2023-05-18T22:28:21.328Z,13.20
2023-05-18T22:30:50.408Z,12.76
2023-05-18T22:33:21.033Z,13.18
2023-05-18T22:35:49.986Z,13.06
2023-05-18T22:38:18.943Z,12.88
2023-05-18T22:40:49.872Z,12.83
2023-05-18T22:43:18.493Z,12.78
2023-05-18T22:45:47.173Z,12.93
2023-05-18T22:48:16.144Z,12.67
2023-05-18T22:50:44.912Z,12.78
2023-05-18T22:53:14.367Z,12.73
2023-05-18T22:55:43.550Z,12.73
2023-05-18T22:58:14.003Z,12.65
2023-05-18T23:00:42.990Z,12.40
2023-05-18T23:03:14.062Z,12.51
2023-05-18T23:05:43.774Z,12.33
2023-05-18T23:08:13.266Z,12.46
2023-05-18T23:10:44.795Z,12.40
2023-05-18T23:13:17.078Z,12.60
2023-05-18T23:15:47.987Z,12.54
2023-05-18T23:18:17.586Z,12.12
2023-05-18T23:20:47.028Z,12.09
2023-05-18T23:23:16.558Z,12.36
2023-05-18T23:25:45.733Z,12.20
2023-05-18T23:28:16.734Z,12.05
2023-05-18T23:30:45.447Z,12.00
2023-05-18T23:33:16.781Z,12.21
2023-05-18T23:35:48.556Z,12.13
2023-05-18T23:38:22.181Z,12.16
2023-05-18T23:40:54.750Z,12.21
2023-05-18T23:43:27.779Z,12.31
2023-05-18T23:45:59.943Z,12.21
2023-05-18T23:48:31.459Z,12.08
2023-05-18T23:51:03.738Z,12.21
2023-05-18T23:53:34.758Z,12.08
2023-05-18T23:56:06.724Z,12.34
2023-05-18T23:58:38.374Z,12.04
